map of MHT home
MHT - Airport
Location
City:  Manchester, New Hampshire, United States
ICAO:KMHT
IATA:MHT
FAA LID:MHT

Details
Type:Airport (Part 139 Class I)
Use:Public/Civil, International (customs landing rights)
Latitude:4255'58"N (42.932806)
Longitude:7126'09"W (-71.435749)
Datum:WGS 1984
Elevation:266 ft (81 m)
Variation:14.45W (WMM2015v2 magnetic declination)
0.09 annual change
Runways:2
Longest:9250 × 150 ft (2819 × 45.5 m), paved

Time
Time Zone:UTC-5 (DST-4)
Local Time:

Weather
METAR:KMHT 041353Z 00000KT 7SM FEW030 SCT080 BKN180 BKN250 01/M02 A3002 RMK AO2 SLP183 T00061022
TAF:KMHT 041120Z 0412/0512 VRB03KT P6SM BKN100
FM042100 17003KT P6SM FEW100

Related Locations
Nearby:
Farthest:YAUG: 11741 mi / 18896 km
Augusta [Augusta Airport], WA, AU

Find:

   beyond  
but within

Other Information
Maps:
Delays:
NOTAMs:
Links:
Sources:

  
  • flag of United States
  • flag of New Hampshire
  

Airport Diagram

Airport diagram for MHT

Airport diagram PDF from FAA

Sectional Chart

Flight Planning
at skyvector.com

Satellite Image

Google Maps Satellite view

 

Copyright © 2004-2019 Karl L. Swartz. All rights reserved.
The Great Circle Mapper name and logo are trademarks of the Great Circle Mapper.
All other trademarks mentioned herein belong to their respective owners.
Please see credits for attibutions and further copyright information.

  Follow gcmap on Facebook Follow gcmap on Twitter GCmap on LinkedIn

hCard Microformat

Geo Microformat